Hauptseite
METAR-TAF:

METAR-TAF

Flughäfen :

Flughafen Nouakchott-Oumtounsy

Nouakchott, Mauretanien

Breite: 18-18-36N, Länge: 015-58-11W, Höhe: 3 m

Beobachtung

Neuester Wetterbericht von vor 23 Minuten, um 08:30 UTC
Wind 7 kt aus West
Temperatur 26°C
Luftfeuchtigkeit 89%
Luftdruck 1012 hPa
Sichtweite: 8000 m
Leicht bewölkt in der Höhe von 1300 ft

METAR: GQNO 170830Z 28007KT 8000 FEW013 26/24 Q1012 NOSIG

Zeit: 08:53 (08:53 UTC)

Prognose

Neuester Wetterbericht von vor 3 Stunden und 23 Minuten, um 05:30 UTC
Gültige Prognose vom 17 um 06 UTC bis 18 um 12 UTC
Wind 3 kt aus unterschiedlichen Richtungen
Sichtweite: 8000 m
Aufgelockert bewölkt in der Höhe von 1500 ft
Übergehend zu
vom 17 um 06 UTC bis 17 um 10 UTC
Wind 12 kt aus West/Nordwest

TAF: GQNO 170530Z 1706/1812 VRB03KT 8000 SCT015 BECMG 1706/1710 29012KT

Wetterbeobachtungen und Prognosen von mehr als 4000 Flughäfen (METAR und TAF Bericht).

Die verfügbaren Stationen werden durch gelbe und rote Markierungen auf der Karte dargestellt.

Führen Sie die Maus auf sie, um den Namen der Station zu sehen.

Darauf klicken, um die Beobachtung von Wetterbeobachtungen und Prognosen zu sehen.

Um die Karte zu ändern : klicken Sie auf den grünen Tasten mit einem schwarzen Kreuz Zum Vergrößern, auf den grünen Button mit einem Gedankenstrich zu verkleinern, oder auf die grünen Pfeile für benachbarte Karten.


METAR-TAF: